CZVL

Details ICAO CZVL
Name EDMONTON VILLENEUVE
Region Canada
Timezone America/Edmonton (UTC-6.0)
Plans Departing 28
Arriving 15
Stats Elevation 2,255 ft / 687 m (AMSL)
Location 53.662556° -113.847071°
Runways 2
Magnetic Variation 14.464° E
Sunrise 2018-05-21 11:26:09 UTC / 2018-05-21 05:26:09 Local
Sunset 2018-05-22 03:40:42 UTC / 2018-05-21 21:40:42 Local
Advertisement - Login to hide

Runways

ID Width Length Bearing (true) Bearing (mag) Surface Threshold Offset Overrun Length
08 100 ft / 30 m 3,620 ft / 1,103 m 102.63° 88.17° Asphalt 0 ft / 0 m 0 ft / 0 m
16 100 ft / 30 m 3,501 ft / 1,067 m 180.91° 166.45° Asphalt 0 ft / 0 m 0 ft / 0 m
26 100 ft / 30 m 3,620 ft / 1,103 m 282.64° 268.18° Asphalt 0 ft / 0 m 0 ft / 0 m
34 100 ft / 30 m 3,501 ft / 1,067 m 0.91° 346.45° Asphalt 0 ft / 0 m 0 ft / 0 m

Map

Weather


0- 5 10 15 20 25 30 35+ Temperature / ° C

Clouds and Precipitation
Forecast for 2018-05-21 12:00 UTC. Updated 2 hours ago

Ground ~20,000 ft ~40,000 ft Winds

METAR

CZVL 211300Z AUTO 29008KT 9SM CLR 13/08 A2985 RMK SLP107 DENSITY ALT 2600FT

TAF

TAF CZVL 211138Z 2112/2124 29008KT P6SM FEW120 BKN250 BECMG 2114/2116 31012G22KT FM211900 30015KT P6SM FEW060 TEMPO 2121/2124 FEW060CB RMK FCST BASED ON AUTO OBS. NXT FCST BY 211800Z

Frequencies

Unicom 120.00 MHz CTAF
Tower 120.00 MHz TWR
Ground 120.80 MHz GND
Warning: Do not use this data for real-world aviation or navigation. No guarantee of current accuracy is given.